< < Back
Terminal Aerodrome Forecast


Current Version              Previous Versions:   1  2  3  4  5  6  7  8  9  

Terminal Aerodrome Forecast

977
FTUS42 KGSP 250538
TAFGSP
TAF
KGSP 250538Z 2506/2606 21003KT P6SM BKN080
     FM251000 22003KT P6SM FEW070
     FM251600 23006KT P6SM SCT060 BKN250
     FM260100 22003KT P6SM SCT060 BKN120=



Latest METAR

217
SAUS70 KWBC 251600 RRC
MTRGSP
METAR KGSP 251553Z VRB06KT 10SM CLR 27/14 A3025 RMK AO2 SLP234
T02720139


USA.gov is the U.S. government's official web portal to all federal, state and local government web resources and services.